Time;durP1;ratioP1;P1;durP2;ratioP2;P2;SDS_P1;SDS_P2;PMS_P1;PMS_P2;Temp;Humidity;BMP_temperature;BMP_pressure;BME280_temperature;BME280_humidity;BME280_pressure;Samples;Min_cycle;Max_cycle;Signal;HPM_P1;HPM_P2
2022/11/22 00:00:41;;;;;;;32.50;9.97;;;;;;;41.18;37.35;100957.75;5014655;28;20408;-75
2022/11/22 00:03:07;;;;;;;23.13;8.80;;;;;;;41.12;36.94;100948.97;5014799;28;20445;-76
2022/11/22 00:05:33;;;;;;;11.23;9.10;;;;;;;41.36;36.88;100947.59;5014905;28;20474;-74
2022/11/22 00:07:59;;;;;;;15.00;9.20;;;;;;;41.19;36.75;100953.88;5032773;28;20407;-76
2022/11/22 00:10:25;;;;;;;16.77;9.13;;;;;;;41.13;37.05;100944.31;5031012;28;20446;-75
2022/11/22 00:12:51;;;;;;;15.40;7.30;;;;;;;41.17;37.31;100935.19;5014441;28;20291;-74
2022/11/22 00:15:17;;;;;;;23.70;9.33;;;;;;;40.98;37.27;100946.47;5014607;28;20172;-74
2022/11/22 00:17:43;;;;;;;20.20;10.83;;;;;;;41.29;36.88;100940.72;5018111;28;20514;-75
2022/11/22 00:20:12;;;;;;;19.97;9.30;;;;;;;41.22;36.78;100942.38;5034138;28;20545;-75
2022/11/22 00:22:38;;;;;;;21.10;11.37;;;;;;;40.81;37.33;100925.50;5034147;28;20802;-75
2022/11/22 00:25:06;;;;;;;21.77;11.87;;;;;;;41.21;37.05;100929.88;5033867;28;20462;-76
2022/11/22 00:27:31;;;;;;;17.93;9.07;;;;;;;41.20;36.63;100923.66;5034080;28;20450;-76
2022/11/22 00:29:57;;;;;;;16.73;9.60;;;;;;;41.41;36.45;100920.19;5034221;28;20433;-76
2022/11/22 00:32:23;;;;;;;16.40;8.80;;;;;;;41.32;37.02;100925.66;5034942;28;20946;-75
2022/11/22 00:34:49;;;;;;;20.10;9.60;;;;;;;41.48;36.81;100917.75;5038001;28;20183;-75
2022/11/22 00:37:15;;;;;;;20.57;10.10;;;;;;;41.62;36.19;100910.16;5037925;28;20671;-76
2022/11/22 00:39:41;;;;;;;16.00;9.70;;;;;;;41.33;36.93;100910.97;5037957;28;20237;-75
2022/11/22 00:42:07;;;;;;;16.17;8.23;;;;;;;40.99;37.21;100901.78;5037892;28;20442;-76
2022/11/22 00:44:33;;;;;;;22.40;9.30;;;;;;;41.49;36.42;100903.00;5055914;28;20196;-75
2022/11/22 00:46:59;;;;;;;12.30;8.53;;;;;;;41.30;36.62;100908.84;5037843;28;21047;-76
2022/11/22 00:49:25;;;;;;;22.77;10.07;;;;;;;41.08;37.21;100902.56;5055942;28;20156;-75
2022/11/22 00:51:51;;;;;;;20.73;9.50;;;;;;;40.78;37.67;100901.69;5056029;28;20537;-76
2022/11/22 00:54:17;;;;;;;13.17;8.30;;;;;;;40.98;37.20;100904.84;5037987;28;20407;-76
2022/11/22 00:56:42;;;;;;;14.53;9.90;;;;;;;40.79;37.44;100902.50;5037925;28;20418;-76
2022/11/22 00:59:08;;;;;;;14.27;7.63;;;;;;;41.12;37.17;100899.19;5037719;28;20471;-76
2022/11/22 01:01:34;;;;;;;18.40;8.67;;;;;;;41.14;37.36;100900.47;5037587;28;20187;-75
2022/11/22 01:04:00;;;;;;;17.33;7.97;;;;;;;40.99;37.28;100896.34;5037649;28;20610;-76
2022/11/22 01:06:26;;;;;;;25.83;9.53;;;;;;;40.75;38.27;100887.94;5056282;28;20446;-75
2022/11/22 01:08:54;;;;;;;12.70;7.97;;;;;;;41.11;37.48;100879.34;5037796;28;20469;-76
2022/11/22 01:11:20;;;;;;;15.07;9.83;;;;;;;41.43;36.78;100882.53;5056027;28;20403;-76
2022/11/22 01:13:46;;;;;;;18.13;9.83;;;;;;;40.94;37.20;100873.97;5037799;28;20434;-76
2022/11/22 01:16:13;;;;;;;17.13;7.27;;;;;;;41.05;36.89;100878.72;5021472;28;20467;-76
2022/11/22 01:18:39;;;;;;;13.00;9.27;;;;;;;41.04;36.77;100860.00;5037603;28;20453;-76
2022/11/22 01:21:05;;;;;;;24.87;11.50;;;;;;;40.93;36.99;100864.22;5037391;28;20865;-76
2022/11/22 01:23:32;;;;;;;13.47;10.03;;;;;;;40.89;36.85;100874.94;5037551;28;20473;-76
2022/11/22 01:25:58;;;;;;;23.47;9.93;;;;;;;40.87;36.98;100879.09;5037102;28;20466;-73
2022/11/22 01:28:25;;;;;;;14.63;8.80;;;;;;;41.26;36.75;100878.78;5037483;28;20414;-71
2022/11/22 01:30:52;;;;;;;13.50;10.60;;;;;;;41.26;36.88;100876.06;5037439;28;20458;-74
2022/11/22 01:33:19;;;;;;;15.80;9.80;;;;;;;41.21;36.99;100873.53;5055593;28;20410;-74
2022/11/22 01:35:45;;;;;;;16.30;9.67;;;;;;;41.02;36.65;100873.16;5037288;28;20488;-75
2022/11/22 01:38:11;;;;;;;17.87;9.70;;;;;;;41.25;36.17;100868.19;5037515;28;20407;-75
2022/11/22 01:40:37;;;;;;;25.27;10.03;;;;;;;41.43;36.08;100872.44;5037203;28;20417;-74
2022/11/22 01:43:13;;;;;;;21.17;10.60;;;;;;;41.45;36.24;100872.13;5037065;28;20407;-74
2022/11/22 01:45:42;;;;;;;17.57;8.80;;;;;;;41.28;36.92;100873.00;5054860;28;20473;-74
2022/11/22 01:48:11;;;;;;;18.37;8.27;;;;;;;41.30;36.40;100873.47;5036797;28;20410;-76
2022/11/22 01:50:40;;;;;;;24.93;11.00;;;;;;;41.19;36.85;100862.19;5036650;28;20411;-76
2022/11/22 01:53:17;;;;;;;17.30;8.90;;;;;;;40.54;37.76;100866.09;5036870;28;20435;-76
2022/11/22 01:55:44;;;;;;;18.33;9.77;;;;;;;41.00;36.75;100859.84;5054764;28;20448;-73
2022/11/22 01:58:14;;;;;;;19.10;9.37;;;;;;;40.97;37.10;100867.88;5037130;28;20430;-73
2022/11/22 02:00:41;;;;;;;16.10;8.93;;;;;;;41.04;36.78;100870.88;5036450;28;20462;-73
2022/11/22 02:03:11;;;;;;;16.83;9.20;;;;;;;41.16;36.50;100856.59;5036507;28;20853;-73
2022/11/22 02:05:37;;;;;;;13.13;8.97;;;;;;;41.39;35.87;100859.84;5020391;28;20446;-75
2022/11/22 02:08:22;;;;;;;13.67;8.20;;;;;;;41.28;36.37;100857.47;5036204;28;20434;-75
2022/11/22 02:10:52;;;;;;;20.20;9.83;;;;;;;41.44;35.87;100859.66;5052853;28;20434;-75
2022/11/22 02:13:20;;;;;;;17.77;7.93;;;;;;;41.00;36.87;100859.84;5036433;28;20500;-76
2022/11/22 02:15:46;;;;;;;14.93;8.23;;;;;;;41.24;36.44;100853.00;5036206;28;20962;-76
2022/11/22 02:18:13;;;;;;;16.40;10.33;;;;;;;41.21;36.30;100848.22;5053850;28;20486;-75
2022/11/22 02:20:39;;;;;;;14.00;7.60;;;;;;;41.11;36.90;100843.97;5036120;28;20419;-75
2022/11/22 02:23:38;;;;;;;14.80;9.63;;;;;;;41.08;36.51;100859.03;5036039;28;20411;-73
2022/11/22 02:26:04;;;;;;;14.47;8.63;;;;;;;41.48;35.95;100846.97;5022598;28;20835;-75
2022/11/22 02:28:35;;;;;;;13.67;8.70;;;;;;;41.36;36.13;100844.16;5036016;28;20914;-74
2022/11/22 02:31:01;;;;;;;22.27;9.80;;;;;;;41.32;36.16;100853.00;5035960;28;20553;-74
2022/11/22 02:33:27;;;;;;;21.67;9.87;;;;;;;41.31;36.33;100843.22;5035845;28;20493;-73
2022/11/22 02:35:54;;;;;;;16.57;9.27;;;;;;;41.16;36.42;100835.59;5054134;28;20709;-75
2022/11/22 02:38:27;;;;;;;15.90;8.80;;;;;;;41.13;36.19;100840.91;5035782;28;20969;-75
2022/11/22 02:41:01;;;;;;;16.47;9.47;;;;;;;40.88;36.78;100829.78;5031916;28;20438;-74
2022/11/22 02:43:33;;;;;;;20.23;11.60;;;;;;;41.06;36.80;100839.50;5023345;28;20915;-75
2022/11/22 02:46:08;;;;;;;15.00;8.80;;;;;;;41.00;36.68;100829.13;5032288;28;20521;-75
2022/11/22 02:48:40;;;;;;;13.70;8.43;;;;;;;41.39;36.25;100833.41;5033788;28;20399;-74
2022/11/22 02:51:06;;;;;;;26.83;11.13;;;;;;;41.51;35.85;100838.13;5016814;28;20807;-74
2022/11/22 02:53:32;;;;;;;16.60;10.07;;;;;;;41.25;36.41;100833.66;5033037;28;20419;-72
2022/11/22 02:55:58;;;;;;;16.53;10.53;;;;;;;41.22;36.62;100826.13;5035034;28;20255;-74
2022/11/22 02:58:23;;;;;;;21.87;9.67;;;;;;;41.27;36.25;100830.59;5035930;28;20894;-73
2022/11/22 03:00:49;;;;;;;26.47;10.33;;;;;;;41.19;36.08;100825.97;5035333;28;20436;-74
2022/11/22 03:03:15;;;;;;;20.00;11.00;;;;;;;41.22;36.38;100823.41;5019040;28;20265;-74
2022/11/22 03:05:41;;;;;;;15.03;11.07;;;;;;;41.45;36.13;100832.09;5019094;28;20926;-73
2022/11/22 03:08:07;;;;;;;22.70;12.40;;;;;;;41.46;36.12;100832.88;5035302;28;20261;-73
2022/11/22 03:10:33;;;;;;;14.47;9.63;;;;;;;40.68;37.17;100828.59;5053452;28;20904;-75
2022/11/22 03:12:59;;;;;;;18.00;8.97;;;;;;;41.18;36.39;100821.66;5035216;28;20860;-75
2022/11/22 03:15:25;;;;;;;24.67;11.37;;;;;;;41.02;36.34;100824.97;5035191;28;20179;-73
2022/11/22 03:18:02;;;;;;;20.53;10.57;;;;;;;40.91;36.56;100820.22;5035394;28;20172;-74
2022/11/22 03:20:28;;;;;;;16.23;9.80;;;;;;;41.34;35.66;100823.50;5035036;28;20442;-73
2022/11/22 03:22:54;;;;;;;15.80;8.90;;;;;;;41.43;35.08;100828.09;5018698;28;20845;-75
2022/11/22 03:25:20;;;;;;;16.43;9.33;;;;;;;41.42;35.45;100826.50;5052663;28;20466;-76
2022/11/22 03:27:46;;;;;;;11.50;9.30;;;;;;;41.35;35.43;100824.31;5034727;28;20450;-74
2022/11/22 03:30:12;;;;;;;17.40;10.17;;;;;;;41.42;35.30;100827.28;5034723;28;20812;-73
2022/11/22 03:32:38;;;;;;;24.80;9.03;;;;;;;41.19;36.11;100818.63;5034833;28;20171;-75
2022/11/22 03:35:05;;;;;;;21.17;12.37;;;;;;;41.08;36.17;100825.59;5035481;28;20414;-76
2022/11/22 03:37:31;;;;;;;13.40;8.90;;;;;;;40.79;36.90;100818.97;5034676;28;20514;-76
2022/11/22 03:39:57;;;;;;;19.77;11.43;;;;;;;41.24;35.94;100821.13;5034833;28;20442;-75
2022/11/22 03:42:23;;;;;;;18.00;8.60;;;;;;;41.05;35.78;100826.22;5034594;28;20466;-76
2022/11/22 03:44:48;;;;;;;17.40;9.80;;;;;;;40.98;36.45;100828.66;5034666;28;20177;-75
2022/11/22 03:47:14;;;;;;;15.53;11.03;;;;;;;41.18;36.46;100838.78;5052834;28;20443;-74
2022/11/22 03:49:41;;;;;;;17.13;11.33;;;;;;;41.41;35.54;100838.53;5034462;28;20200;-75
2022/11/22 03:52:07;;;;;;;16.03;12.13;;;;;;;41.18;36.40;100836.06;5052903;28;20171;-76
2022/11/22 03:54:33;;;;;;;18.63;13.83;;;;;;;41.18;36.36;100836.06;5034559;28;20509;-75
2022/11/22 03:56:59;;;;;;;18.73;13.70;;;;;;;41.22;36.23;100844.38;5034528;28;20518;-76
2022/11/22 03:59:25;;;;;;;21.00;12.90;;;;;;;41.29;36.38;100842.72;5034567;28;20469;-75
2022/11/22 04:01:51;;;;;;;21.73;13.83;;;;;;;41.17;36.70;100844.56;5017889;28;20441;-76
2022/11/22 04:04:17;;;;;;;23.47;13.63;;;;;;;41.05;36.32;100856.16;5034476;28;20418;-76
2022/11/22 04:06:42;;;;;;;20.60;13.37;;;;;;;41.02;36.50;100852.19;5034217;28;20235;-76
2022/11/22 04:09:08;;;;;;;17.83;13.10;;;;;;;40.87;36.67;100855.41;5038350;28;20422;-75
2022/11/22 04:11:34;;;;;;;19.43;14.23;;;;;;;41.03;36.86;100858.41;5038613;28;20555;-76
2022/11/22 04:16:45;;;;;;;19.97;12.60;;;;;;;40.89;36.59;100865.97;5040395;28;20175;-76
2022/11/22 04:19:10;;;;;;;22.23;13.80;;;;;;;41.15;36.57;100874.84;5038121;28;20509;-76
2022/11/22 04:21:36;;;;;;;19.27;16.17;;;;;;;40.86;37.17;100878.28;5037662;28;20180;-76
2022/11/22 04:26:52;;;;;;;41.43;28.03;;;;;;;40.94;37.15;100887.56;5055737;28;20536;-76
2022/11/22 04:29:19;;;;;;;34.90;22.27;;;;;;;41.11;36.64;100882.06;5038116;28;20801;-75
2022/11/22 04:34:31;;;;;;;89.97;47.07;;;;;;;40.81;37.16;100890.16;5041042;28;20414;-75
2022/11/22 04:36:58;;;;;;;90.67;47.60;;;;;;;40.60;37.76;100885.75;5037953;28;20488;-76
2022/11/22 04:39:24;;;;;;;75.63;42.33;;;;;;;40.56;37.53;100896.47;5038281;28;20414;-75
2022/11/22 04:44:40;;;;;;;47.90;30.00;;;;;;;40.81;37.45;100905.66;5056072;28;20444;-76
2022/11/22 04:47:07;;;;;;;41.00;23.77;;;;;;;40.92;37.01;100906.16;5037822;28;20462;-75
2022/11/22 04:49:33;;;;;;;57.73;24.30;;;;;;;41.07;36.78;100911.88;5056012;28;20413;-75
2022/11/22 04:54:43;;;;;;;75.40;47.27;;;;;;;40.91;36.72;100916.25;5055689;28;20175;-75
2022/11/22 04:57:09;;;;;;;101.83;51.53;;;;;;;41.07;36.84;100919.22;5055853;28;20915;-76
2022/11/22 04:59:35;;;;;;;79.80;52.03;;;;;;;41.18;36.50;100914.19;5055924;28;20240;-76
2022/11/22 05:02:01;;;;;;;52.83;35.03;;;;;;;41.09;36.49;100916.97;5055684;28;20192;-74
2022/11/22 05:04:27;;;;;;;42.57;24.53;;;;;;;41.13;36.72;100917.94;5037671;28;20564;-73
2022/11/22 05:06:55;;;;;;;23.93;18.83;;;;;;;41.20;36.61;100918.22;5037224;28;20450;-73
2022/11/22 05:09:21;;;;;;;27.00;18.30;;;;;;;41.05;37.13;100918.75;5055767;28;20149;-73
2022/11/22 05:11:47;;;;;;;30.67;17.80;;;;;;;40.36;37.66;100919.66;5037406;28;20457;-74
2022/11/22 05:14:13;;;;;;;24.50;18.70;;;;;;;40.48;38.02;100921.75;5037159;28;20852;-74
2022/11/22 05:16:39;;;;;;;23.60;17.63;;;;;;;40.53;37.53;100927.03;5037312;28;20172;-74
2022/11/22 05:19:05;;;;;;;26.73;18.13;;;;;;;40.71;37.67;100919.66;5036867;28;20184;-75
2022/11/22 05:21:34;;;;;;;31.57;18.93;;;;;;;40.63;37.57;100918.53;5037356;28;20410;-74
2022/11/22 05:24:01;;;;;;;30.50;16.57;;;;;;;40.76;37.28;100911.28;5037311;28;20415;-74
2022/11/22 05:26:32;;;;;;;24.67;19.10;;;;;;;40.73;36.95;100909.22;5036691;28;20493;-74
2022/11/22 05:29:02;;;;;;;25.67;20.20;;;;;;;40.44;37.67;100915.34;5037120;28;20485;-74
2022/11/22 05:31:28;;;;;;;35.43;21.80;;;;;;;40.45;37.69;100909.56;5055182;28;20901;-74
2022/11/22 05:33:55;;;;;;;31.57;18.80;;;;;;;40.37;37.76;100923.19;5037092;28;20417;-74
2022/11/22 05:36:22;;;;;;;26.33;19.43;;;;;;;40.30;37.73;100923.66;5037070;28;20431;-75
2022/11/22 05:38:48;;;;;;;30.73;19.47;;;;;;;40.51;37.49;100921.09;5055205;28;20453;-74
2022/11/22 05:41:15;;;;;;;34.53;18.90;;;;;;;40.35;37.85;100920.00;5036901;28;20428;-77
2022/11/22 05:43:41;;;;;;;28.87;23.47;;;;;;;40.04;38.18;100920.97;5042706;28;20421;-75
2022/11/22 05:46:13;;;;;;;27.00;20.53;;;;;;;40.25;38.31;100919.19;5056714;28;20880;-77
2022/11/22 05:48:44;;;;;;;31.20;21.43;;;;;;;40.39;37.93;100920.94;5056677;28;20465;-76
2022/11/22 05:51:15;;;;;;;33.77;21.90;;;;;;;40.43;38.14;100921.91;5056692;28;20421;-76
2022/11/22 05:53:42;;;;;;;32.60;22.63;;;;;;;40.69;37.33;100930.03;5065856;28;20481;-78
2022/11/22 05:56:18;;;;;;;35.40;23.73;;;;;;;40.39;37.58;100921.75;5034160;28;20430;-75
2022/11/22 05:58:45;;;;;;;24.00;19.00;;;;;;;40.22;38.01;100930.72;5030982;28;20431;-75
2022/11/22 06:01:14;;;;;;;33.40;23.13;;;;;;;40.59;37.58;100931.19;5033697;28;20805;-74
2022/11/22 06:03:40;;;;;;;32.40;23.20;;;;;;;40.70;37.43;100928.91;5036495;28;20498;-74
2022/11/22 06:09:28;;;;;;;32.63;21.87;;;;;;;40.55;37.55;100936.47;5035144;28;20792;-74
2022/11/22 06:11:53;;;;;;;29.53;22.00;;;;;;;40.51;37.51;100940.13;5034600;28;20895;-76
2022/11/22 06:14:19;;;;;;;33.13;22.37;;;;;;;40.48;37.97;100947.03;5032753;28;20211;-75
2022/11/22 06:16:45;;;;;;;27.87;21.80;;;;;;;40.75;37.37;100950.50;5034826;28;20660;-73
2022/11/22 06:19:12;;;;;;;41.37;25.27;;;;;;;40.74;37.54;100943.47;5035485;28;20430;-72
2022/11/22 06:21:38;;;;;;;33.93;26.60;;;;;;;40.76;37.08;100968.41;5031792;28;20195;-72
2022/11/22 06:24:04;;;;;;;31.07;24.30;;;;;;;40.63;37.35;100961.22;5016307;28;20423;-74
2022/11/22 06:26:30;;;;;;;35.23;23.30;;;;;;;40.67;37.00;100965.72;5031119;28;20460;-73
2022/11/22 06:28:56;;;;;;;26.30;22.30;;;;;;;40.71;37.69;100971.31;5033010;28;20420;-73
2022/11/22 06:31:26;;;;;;;33.10;21.77;;;;;;;40.70;37.52;100981.41;5032321;28;20181;-73
2022/11/22 06:33:53;;;;;;;31.23;20.90;;;;;;;40.73;37.46;100985.38;5034353;28;20388;-73
2022/11/22 06:36:22;;;;;;;35.50;24.97;;;;;;;40.70;37.05;100986.00;5035169;28;20427;-72
2022/11/22 06:38:48;;;;;;;38.83;27.77;;;;;;;40.52;37.65;100987.97;5049584;28;20926;-72
2022/11/22 06:41:19;;;;;;;40.67;32.27;;;;;;;39.73;38.91;100992.47;5050139;28;20499;-72
2022/11/22 06:43:47;;;;;;;54.93;31.40;;;;;;;40.03;38.81;101004.38;5033083;28;20403;-73
2022/11/22 06:46:14;;;;;;;37.83;31.37;;;;;;;39.81;38.81;101000.97;5014904;28;20482;-74
2022/11/22 06:48:41;;;;;;;41.47;32.13;;;;;;;40.06;38.54;101011.09;5033762;28;20434;-75
2022/11/22 06:51:18;;;;;;;41.13;29.43;;;;;;;40.17;38.27;101012.41;5050830;28;20426;-72
2022/11/22 06:53:48;;;;;;;36.30;26.80;;;;;;;40.52;38.02;101013.25;5038933;28;20434;-72
2022/11/22 06:56:19;;;;;;;37.87;25.73;;;;;;;40.14;38.49;101018.44;5034598;28;20497;-73
2022/11/22 06:58:46;;;;;;;38.67;24.43;;;;;;;40.33;38.00;101022.78;5034785;28;20473;-74
2022/11/22 07:01:15;;;;;;;28.70;23.57;;;;;;;40.00;38.77;101018.56;5035510;28;20410;-72
2022/11/22 07:03:42;;;;;;;35.17;21.40;;;;;;;40.01;38.65;101011.22;5035389;28;20403;-72
2022/11/22 07:06:10;;;;;;;33.60;23.43;;;;;;;40.34;38.32;101016.25;5051579;28;20450;-73
2022/11/22 07:08:37;;;;;;;31.07;25.10;;;;;;;40.49;37.94;101029.38;5037931;28;20457;-72
2022/11/22 07:11:24;;;;;;;36.10;26.83;;;;;;;40.07;38.34;101022.78;5047418;28;20499;-72
2022/11/22 07:14:27;;;;;;;35.47;24.17;;;;;;;39.54;39.70;101029.13;5028076;28;20441;-71
2022/11/22 07:16:53;;;;;;;36.13;23.93;;;;;;;40.25;38.05;101025.19;4993658;28;21063;-72
2022/11/22 07:19:19;;;;;;;32.23;24.73;;;;;;;40.47;38.00;101031.59;4989949;28;20549;-72
2022/11/22 07:21:45;;;;;;;44.17;26.20;;;;;;;40.56;37.66;101035.13;5008012;28;20507;-73
2022/11/22 07:24:11;;;;;;;44.00;24.90;;;;;;;40.58;37.97;101049.22;4997922;28;20212;-73
2022/11/22 07:26:39;;;;;;;41.93;27.17;;;;;;;40.43;38.19;101049.66;4994816;28;20320;-75
2022/11/22 07:29:04;;;;;;;35.07;24.23;;;;;;;40.59;37.98;101050.81;5009611;28;20519;-73
2022/11/22 07:31:30;;;;;;;37.80;25.33;;;;;;;40.73;37.70;101062.34;4993855;28;20905;-74
2022/11/22 07:33:57;;;;;;;34.13;26.17;;;;;;;39.95;38.96;101061.38;4993935;28;20263;-75
2022/11/22 07:36:27;;;;;;;32.73;25.20;;;;;;;40.41;38.43;101063.59;4993343;28;20483;-73
2022/11/22 07:38:53;;;;;;;46.73;29.30;;;;;;;40.60;37.98;101062.50;4994366;28;20506;-74
2022/11/22 07:41:20;;;;;;;41.27;22.60;;;;;;;40.51;38.13;101068.72;4994363;28;20878;-73
2022/11/22 07:43:46;;;;;;;31.73;25.03;;;;;;;40.60;37.99;101063.31;4993933;28;20189;-74
2022/11/22 07:46:28;;;;;;;41.27;22.87;;;;;;;40.31;38.55;101073.97;4990890;28;20477;-73
2022/11/22 07:48:54;;;;;;;29.77;22.93;;;;;;;40.82;38.01;101075.91;5029956;28;20407;-74
2022/11/22 07:51:20;;;;;;;51.40;29.57;;;;;;;41.07;37.35;101069.69;5030901;28;20493;-75
2022/11/22 07:53:46;;;;;;;34.53;23.00;;;;;;;41.07;36.73;101074.34;5031604;28;20483;-75
2022/11/22 07:56:12;;;;;;;39.10;24.60;;;;;;;41.18;37.17;101075.56;5022674;28;20184;-73
2022/11/22 07:58:38;;;;;;;40.83;24.17;;;;;;;41.27;37.00;101070.13;5043312;28;20446;-73
2022/11/22 08:01:07;;;;;;;34.00;25.17;;;;;;;41.27;36.85;101076.38;5031329;28;20435;-76
2022/11/22 08:03:34;;;;;;;32.40;23.80;;;;;;;41.39;36.38;101072.19;5030926;28;20429;-75
2022/11/22 08:06:00;;;;;;;44.17;25.33;;;;;;;41.59;36.21;101077.72;5030921;28;20407;-73
2022/11/22 08:08:26;;;;;;;31.50;26.67;;;;;;;40.97;37.65;101078.19;5030950;28;20423;-75
2022/11/22 08:10:52;;;;;;;35.27;24.37;;;;;;;41.17;36.93;101073.97;5029238;28;20438;-74
2022/11/22 08:13:18;;;;;;;36.93;25.17;;;;;;;41.33;36.55;101085.97;5031118;28;20538;-75
2022/11/22 08:15:47;;;;;;;37.53;25.17;;;;;;;41.23;36.55;101083.56;5029564;28;20715;-74
2022/11/22 08:18:13;;;;;;;30.93;24.33;;;;;;;41.30;36.75;101078.41;5031008;28;20259;-74
2022/11/22 08:20:38;;;;;;;36.73;22.93;;;;;;;40.64;37.78;101079.75;5031258;28;20920;-76
2022/11/22 08:23:04;;;;;;;29.90;20.23;;;;;;;41.11;36.86;101079.91;5030939;28;20534;-76
2022/11/22 08:25:31;;;;;;;35.87;19.90;;;;;;;40.94;37.78;101083.47;5038125;28;20781;-75
2022/11/22 08:27:57;;;;;;;31.03;21.77;;;;;;;41.37;36.90;101088.03;5034194;28;20461;-75
2022/11/22 08:30:22;;;;;;;29.47;20.83;;;;;;;41.72;36.42;101088.72;5052393;28;20399;-75
2022/11/22 08:32:50;;;;;;;33.67;24.07;;;;;;;41.65;36.50;101094.69;5033606;28;20184;-75
2022/11/22 08:35:16;;;;;;;35.70;24.90;;;;;;;41.93;35.41;101086.06;5032411;28;20481;-73
2022/11/22 08:37:42;;;;;;;31.53;18.50;;;;;;;41.90;35.46;101071.19;5033959;28;20801;-75
2022/11/22 08:40:08;;;;;;;24.23;14.10;;;;;;;41.93;35.57;101080.63;5032994;28;20980;-73
2022/11/22 08:42:34;;;;;;;23.83;13.90;;;;;;;41.72;35.43;101094.97;5029976;28;20278;-74
2022/11/22 08:45:00;;;;;;;16.70;12.70;;;;;;;42.04;35.05;101096.28;5034442;28;20566;-74
2022/11/22 08:47:26;;;;;;;21.40;11.07;;;;;;;42.03;35.03;101100.13;5032600;28;20234;-74
2022/11/22 08:49:52;;;;;;;28.17;12.80;;;;;;;42.10;34.94;101088.69;5032648;28;20442;-74
2022/11/22 08:52:18;;;;;;;23.90;14.10;;;;;;;42.41;34.92;101110.19;5033851;28;20230;-74
2022/11/22 08:54:44;;;;;;;22.83;12.30;;;;;;;42.47;34.55;101099.88;5036998;28;20558;-75
2022/11/22 08:57:10;;;;;;;18.27;13.03;;;;;;;42.71;34.05;101102.75;5037599;28;20207;-76
2022/11/22 08:59:36;;;;;;;15.67;11.50;;;;;;;42.64;33.85;101099.78;5037949;28;20431;-75
2022/11/22 09:02:02;;;;;;;29.17;17.37;;;;;;;42.57;34.48;101100.31;5036757;28;20730;-74
2022/11/22 09:04:27;;;;;;;35.47;28.03;;;;;;;42.22;34.70;101101.66;5055861;28;20252;-75
2022/11/22 09:06:53;;;;;;;50.50;40.50;;;;;;;42.43;34.06;101107.16;5053243;28;20462;-74
2022/11/22 09:09:19;;;;;;;55.47;43.70;;;;;;;42.55;33.93;101099.03;5036727;28;20445;-74
2022/11/22 09:11:45;;;;;;;27.07;19.93;;;;;;;42.43;34.36;101094.31;5036613;28;20434;-74
2022/11/22 09:14:11;;;;;;;22.80;13.50;;;;;;;42.31;34.60;101113.31;5055617;28;20541;-73
2022/11/22 09:16:37;;;;;;;22.20;14.63;;;;;;;42.58;34.28;101101.09;5033050;28;20191;-75
2022/11/22 09:19:03;;;;;;;17.03;13.50;;;;;;;42.72;34.10;101100.81;5037603;28;20273;-75
2022/11/22 09:21:29;;;;;;;37.43;18.20;;;;;;;42.73;34.20;101092.31;5037463;28;20194;-75
2022/11/22 09:23:54;;;;;;;25.17;18.53;;;;;;;42.86;33.98;101099.44;5037265;28;20209;-75
2022/11/22 09:26:23;;;;;;;16.53;12.83;;;;;;;42.67;34.33;101107.31;5037005;28;20243;-75
2022/11/22 09:28:49;;;;;;;17.00;11.67;;;;;;;42.67;34.22;101110.03;5036383;28;20192;-75
2022/11/22 09:31:18;;;;;;;33.33;19.30;;;;;;;42.56;34.45;101106.06;5035730;28;20446;-78
2022/11/22 09:33:45;;;;;;;16.07;13.07;;;;;;;42.70;34.35;101106.63;5036346;28;20442;-77
2022/11/22 09:36:13;;;;;;;32.73;20.70;;;;;;;42.71;34.36;101102.75;5036083;28;20966;-78
2022/11/22 09:38:40;;;;;;;23.90;20.10;;;;;;;42.52;34.28;101097.75;5055165;28;20481;-75
2022/11/22 09:41:15;;;;;;;32.90;14.60;;;;;;;42.62;34.22;101110.22;5036955;28;20410;-74
2022/11/22 09:43:59;;;;;;;20.47;14.23;;;;;;;42.78;34.29;101115.84;5036210;28;20488;-74
2022/11/22 09:46:55;;;;;;;15.13;11.93;;;;;;;42.76;34.07;101124.38;5036132;28;20484;-74
2022/11/22 09:49:40;;;;;;;13.50;10.37;;;;;;;42.53;34.28;101121.16;5036660;28;20443;-75
2022/11/22 09:52:29;;;;;;;16.73;9.93;;;;;;;42.60;34.34;101124.22;5036674;28;20450;-76
2022/11/22 09:55:15;;;;;;;16.73;11.70;;;;;;;42.72;34.21;101123.44;5035999;28;20438;-74
2022/11/22 09:57:47;;;;;;;16.63;11.07;;;;;;;42.68;33.92;101125.25;5048990;28;20479;-73
2022/11/22 10:00:24;;;;;;;16.10;11.20;;;;;;;42.65;34.20;101126.72;5031832;28;20959;-75
2022/11/22 10:03:10;;;;;;;20.60;11.43;;;;;;;42.81;34.26;101126.13;5028843;28;20791;-75
2022/11/22 10:05:50;;;;;;;19.57;13.60;;;;;;;42.46;34.44;101120.09;5035212;28;20423;-75
2022/11/22 10:08:42;;;;;;;15.67;9.23;;;;;;;42.13;34.66;101121.56;5031375;28;20545;-74
2022/11/22 10:11:39;;;;;;;16.20;9.40;;;;;;;42.68;34.04;101124.47;5016547;28;20499;-73
2022/11/22 10:14:43;;;;;;;18.13;11.77;;;;;;;42.58;34.09;101122.94;5016595;28;20426;-75
2022/11/22 10:17:37;;;;;;;19.03;10.03;;;;;;;42.81;33.82;101113.28;5036314;28;20507;-74
2022/11/22 10:20:12;;;;;;;18.17;10.90;;;;;;;42.58;34.34;101112.81;5022136;28;20441;-74
2022/11/22 10:22:38;;;;;;;17.87;10.87;;;;;;;42.40;34.63;101109.38;5035017;28;20505;-74
2022/11/22 10:25:22;;;;;;;26.00;16.43;;;;;;;42.59;34.13;101102.69;5033839;28;21062;-74
2022/11/22 10:28:01;;;;;;;47.77;40.70;;;;;;;42.85;33.83;101091.59;5034600;28;20462;-73
2022/11/22 10:30:34;;;;;;;53.13;35.70;;;;;;;42.67;33.99;101085.47;5035788;28;20798;-75
2022/11/22 10:33:17;;;;;;;22.33;18.00;;;;;;;42.87;34.08;101084.66;5035947;28;20810;-74
2022/11/22 10:36:27;;;;;;;39.20;20.17;;;;;;;42.85;34.05;101083.41;5035217;28;20517;-73
2022/11/22 10:39:10;;;;;;;32.33;17.30;;;;;;;43.04;33.87;101091.09;4974604;28;20430;-75
2022/11/22 10:42:05;;;;;;;19.10;13.10;;;;;;;42.93;34.04;101085.25;5051966;28;20939;-73
2022/11/22 10:44:53;;;;;;;24.53;14.07;;;;;;;42.55;34.32;101082.66;5011275;28;20454;-73
2022/11/22 10:47:22;;;;;;;26.43;14.77;;;;;;;42.69;34.47;101075.03;5035680;28;20450;-73
2022/11/22 10:50:12;;;;;;;19.60;11.17;;;;;;;42.32;35.06;101060.38;5034254;28;20445;-73
2022/11/22 10:52:38;;;;;;;23.13;13.57;;;;;;;42.64;34.65;101059.66;5034225;28;20423;-72
2022/11/22 10:55:22;;;;;;;25.03;11.80;;;;;;;42.36;34.93;101066.78;5027441;28;20435;-74
2022/11/22 10:58:32;;;;;;;25.10;12.27;;;;;;;42.42;35.07;101054.53;5052565;28;20199;-73
2022/11/22 11:01:14;;;;;;;17.70;11.93;;;;;;;42.44;34.80;101046.81;5006709;28;20458;-73
2022/11/22 11:03:43;;;;;;;25.70;13.57;;;;;;;42.73;34.47;101056.06;5035370;28;20410;-73
2022/11/22 11:06:16;;;;;;;17.63;12.10;;;;;;;42.89;34.32;101052.34;5009434;28;20403;-73
2022/11/22 11:08:45;;;;;;;19.50;11.43;;;;;;;42.91;34.43;101049.31;5053448;28;20822;-73
2022/11/22 11:11:13;;;;;;;19.97;13.30;;;;;;;42.82;34.04;101034.94;5034928;28;20997;-72
2022/11/22 11:13:51;;;;;;;14.53;11.23;;;;;;;42.91;34.00;101050.09;5035457;28;20444;-73
2022/11/22 11:16:22;;;;;;;19.80;10.83;;;;;;;42.89;34.19;101046.91;5035664;28;20470;-73
2022/11/22 11:18:55;;;;;;;20.00;11.00;;;;;;;42.85;34.23;101039.75;5028357;28;20769;-74
2022/11/22 11:21:21;;;;;;;17.97;11.30;;;;;;;43.07;34.30;101033.09;5032511;28;20433;-72
2022/11/22 11:23:47;;;;;;;21.13;11.40;;;;;;;42.74;34.32;101030.38;5033397;28;20423;-73
2022/11/22 11:26:29;;;;;;;14.50;10.50;;;;;;;43.03;33.99;101022.06;5034661;28;20470;-71
2022/11/22 11:29:16;;;;;;;26.70;14.27;;;;;;;43.08;34.06;101023.78;5038669;28;20998;-73
2022/11/22 11:32:03;;;;;;;15.87;10.83;;;;;;;42.69;34.54;101020.47;5033195;28;20882;-71
2022/11/22 11:34:29;;;;;;;26.33;13.30;;;;;;;43.17;33.99;101008.91;5033007;28;20431;-71
2022/11/22 11:36:57;;;;;;;15.30;11.40;;;;;;;43.33;33.85;101003.53;5024885;28;20415;-72
2022/11/22 11:39:28;;;;;;;16.50;9.97;;;;;;;43.24;33.62;101008.34;5034830;28;20425;-71